Hauptseite
METAR-TAF:

METAR-TAF

Flughäfen :

Flughafen Karlsruhe/Baden-Baden

Baden-Baden, Deutschland

Breite: 48-46-43N, Länge: 008-04-47E, Höhe: 124 m

Beobachtung

Neuester Wetterbericht von vor 29 Minuten, um 03:50 UTC
Wind 9 kt aus Nord/Nordost
Temperatur -4°C
Luftfeuchtigkeit 86%
Luftdruck 1020 hPa
Sichtweite: 8000 m
Durchbrochene Bewölkung in der Höhe von 4200 ft

METAR: EDSB 210350Z 03009KT 8000 BKN042 M04/M06 Q1020

Zeit: 05:19 (04:19 UTC)

Prognose

Neuester Wetterbericht von vor 11 Stunden und 19 Minuten, um 17:00 UTC
Gültige Prognose vom 20 um 18 UTC bis 21 um 18 UTC
Wind 5 kt aus Nord/Nordost
Sichtweite 10 km oder mehr
Durchbrochene Bewölkung in der Höhe von 3000 ft
Wahrscheinlichkeit 30% :
Zeitweise
vom 21 um 01 UTC bis 21 um 09 UTC
Sichtweite: 4000 m
Durchbrochene Bewölkung in der Höhe von 1200 ft
feuchter Dunst

TAF: EDSB 201700Z 2018/2118 03005KT 9999 BKN030 PROB30 TEMPO 2101/2109 4000 BR BKN012

Wetterbeobachtungen und Prognosen von mehr als 4000 Flughäfen (METAR und TAF Bericht).

Die verfügbaren Stationen werden durch gelbe und rote Markierungen auf der Karte dargestellt.

Führen Sie die Maus auf sie, um den Namen der Station zu sehen.

Darauf klicken, um die Beobachtung von Wetterbeobachtungen und Prognosen zu sehen.

Um die Karte zu ändern : klicken Sie auf den grünen Tasten mit einem schwarzen Kreuz Zum Vergrößern, auf den grünen Button mit einem Gedankenstrich zu verkleinern, oder auf die grünen Pfeile für benachbarte Karten.


METAR-TAF: